createdAt,value
2023-07-03T00:01:47.153Z,82.90
2023-07-03T00:05:49.001Z,84.70
2023-07-03T00:09:50.630Z,87.70
2023-07-03T00:13:51.952Z,86.40
2023-07-03T00:17:53.429Z,88.60
2023-07-03T00:21:54.744Z,85.60
2023-07-03T00:25:56.290Z,89.10
2023-07-03T00:29:57.612Z,88.80
2023-07-03T00:33:59.064Z,86.70
2023-07-03T00:38:00.380Z,87.20
2023-07-03T00:42:01.716Z,88.50
2023-07-03T00:46:03.731Z,88.30
2023-07-03T00:50:06.359Z,90.00
2023-07-03T00:54:07.861Z,86.80
2023-07-03T00:58:09.502Z,87.20
2023-07-03T01:02:26.011Z,88.30
2023-07-03T01:06:33.601Z,87.40
2023-07-03T01:10:35.169Z,85.80
2023-07-03T01:14:38.834Z,87.00
2023-07-03T01:18:41.700Z,88.10
2023-07-03T01:22:46.927Z,89.70
2023-07-03T01:26:49.408Z,87.60
2023-07-03T01:30:53.633Z,89.30
2023-07-03T01:34:56.625Z,91.20
2023-07-03T01:39:01.465Z,93.00
2023-07-03T01:43:03.203Z,93.20
2023-07-03T01:47:11.449Z,93.10
2023-07-03T01:51:16.624Z,93.90
2023-07-03T01:55:46.130Z,94.20
2023-07-03T01:59:51.035Z,95.10
2023-07-03T02:04:07.807Z,93.60
2023-07-03T02:08:10.427Z,94.60
2023-07-03T02:12:11.756Z,93.30
2023-07-03T02:16:15.829Z,93.80
2023-07-03T02:20:17.270Z,94.40
2023-07-03T02:24:18.713Z,94.70
2023-07-03T02:28:20.035Z,94.30
2023-07-03T02:32:21.380Z,94.20
2023-07-03T02:36:24.562Z,94.40
2023-07-03T02:40:25.922Z,95.30
2023-07-03T02:44:27.237Z,94.90
2023-07-03T02:48:28.570Z,95.50
2023-07-03T02:52:29.894Z,95.40
2023-07-03T02:56:31.244Z,95.80
2023-07-03T03:00:33.395Z,96.20
2023-07-03T03:04:34.741Z,97.10
2023-07-03T03:08:36.019Z,98.20
2023-07-03T03:12:37.308Z,98.20
2023-07-03T03:16:38.602Z,98.40
2023-07-03T03:20:40.423Z,98.20
2023-07-03T03:24:41.882Z,98.50
2023-07-03T03:28:43.237Z,97.70
2023-07-03T03:32:44.807Z,98.20
2023-07-03T03:36:46.215Z,97.90
2023-07-03T03:40:58.727Z,97.90
2023-07-03T03:45:00.018Z,97.60
2023-07-03T03:49:01.713Z,97.40
2023-07-03T03:53:02.980Z,98.20
2023-07-03T03:57:05.122Z,98.20
2023-07-03T04:01:06.359Z,99.30
2023-07-03T04:05:07.970Z,99.60
2023-07-03T04:09:10.192Z,99.90
2023-07-03T04:13:12.340Z,99.90
2023-07-03T04:17:13.728Z,99.90
2023-07-03T04:21:16.573Z,99.90
2023-07-03T04:25:18.357Z,99.90
2023-07-03T04:29:19.690Z,99.90
2023-07-03T04:33:23.661Z,99.90
2023-07-03T04:37:26.815Z,99.90
2023-07-03T04:41:28.439Z,99.90
2023-07-03T04:45:32.351Z,99.90
2023-07-03T04:49:33.906Z,99.90
2023-07-03T04:53:41.366Z,99.90
2023-07-03T04:57:43.020Z,99.90
2023-07-03T05:01:44.470Z,99.90
2023-07-03T05:05:45.762Z,99.90
2023-07-03T05:09:47.094Z,99.90
2023-07-03T05:13:48.444Z,99.90
2023-07-03T05:17:51.502Z,99.90
2023-07-03T05:21:52.847Z,99.90
2023-07-03T05:25:54.459Z,99.90
2023-07-03T05:29:57.945Z,99.90
2023-07-03T05:33:59.539Z,99.90
2023-07-03T05:38:01.009Z,99.90
2023-07-03T05:42:02.334Z,99.90
2023-07-03T05:46:03.675Z,99.90
2023-07-03T05:50:07.523Z,97.10
2023-07-03T05:54:10.004Z,96.30
2023-07-03T05:58:12.184Z,96.60
2023-07-03T06:02:16.173Z,96.20
2023-07-03T06:06:18.045Z,94.60
2023-07-03T06:10:19.467Z,93.60
2023-07-03T06:14:20.878Z,93.70
2023-07-03T06:18:22.108Z,93.00
2023-07-03T06:22:23.746Z,93.50
2023-07-03T06:26:25.064Z,96.20
2023-07-03T06:30:26.387Z,96.40
2023-07-03T06:34:28.161Z,95.90
2023-07-03T06:38:29.537Z,94.90
2023-07-03T06:42:30.883Z,93.00
2023-07-03T06:46:33.743Z,92.70
2023-07-03T06:50:35.144Z,91.00
2023-07-03T06:54:36.488Z,89.80
2023-07-03T06:58:37.805Z,86.30
2023-07-03T07:02:39.389Z,88.80
2023-07-03T07:06:40.867Z,91.90
2023-07-03T07:10:42.634Z,91.90
2023-07-03T07:14:43.958Z,90.90
2023-07-03T07:18:51.881Z,86.40
2023-07-03T07:22:53.179Z,79.90
2023-07-03T07:26:59.138Z,73.90
2023-07-03T07:31:00.525Z,75.90
2023-07-03T07:35:07.354Z,85.40
2023-07-03T07:39:09.193Z,79.10
2023-07-03T07:43:10.504Z,74.80
2023-07-03T07:47:11.972Z,72.60
2023-07-03T07:51:13.796Z,71.00
2023-07-03T07:55:15.226Z,70.90
2023-07-03T07:59:17.195Z,72.70
2023-07-03T08:03:18.499Z,68.70
2023-07-03T08:07:19.853Z,67.40
2023-07-03T08:11:21.256Z,66.70
2023-07-03T08:15:22.551Z,64.70
2023-07-03T08:19:24.116Z,66.70
2023-07-03T08:23:25.880Z,62.10
2023-07-03T08:27:27.195Z,56.20
2023-07-03T08:31:28.691Z,53.00
2023-07-03T08:39:33.312Z,50.60
2023-07-03T08:43:38.415Z,49.60
2023-07-03T08:47:41.167Z,49.30
2023-07-03T08:51:43.259Z,49.30
2023-07-03T08:55:49.183Z,49.70
2023-07-03T08:59:53.169Z,49.90
2023-07-03T09:04:28.801Z,49.80
2023-07-03T09:08:50.498Z,50.00
2023-07-03T09:13:01.512Z,48.40
2023-07-03T09:17:06.763Z,49.50
2023-07-03T09:21:08.934Z,49.60
2023-07-03T09:25:14.235Z,48.40
2023-07-03T09:29:16.174Z,49.10
2023-07-03T09:33:19.166Z,49.40
2023-07-03T09:37:20.543Z,49.20
2023-07-03T09:41:30.921Z,48.80
2023-07-03T09:45:34.914Z,49.20
2023-07-03T09:49:36.620Z,49.40
2023-07-03T09:53:40.267Z,49.80
2023-07-03T09:57:41.580Z,49.00
2023-07-03T10:13:55.988Z,48.70
2023-07-03T10:18:07.139Z,47.50
2023-07-03T10:22:09.894Z,49.00
2023-07-03T10:26:15.466Z,50.00
2023-07-03T10:30:18.913Z,49.60
2023-07-03T10:34:29.727Z,51.00
2023-07-03T10:38:40.530Z,51.30
2023-07-03T10:42:48.179Z,52.70
2023-07-03T10:47:05.311Z,53.80
2023-07-03T10:51:20.423Z,53.70
2023-07-03T10:55:34.230Z,53.50
2023-07-03T10:59:39.379Z,53.30
2023-07-03T11:04:00.705Z,51.70
2023-07-03T11:07:59.791Z,52.20
2023-07-03T11:12:14.197Z,50.80
2023-07-03T11:16:17.673Z,48.50
2023-07-03T11:24:54.027Z,48.10
2023-07-03T11:28:56.479Z,47.00
2023-07-03T11:33:00.299Z,46.40
2023-07-03T11:37:04.737Z,45.10
2023-07-03T11:45:27.095Z,45.40
2023-07-03T11:49:33.538Z,46.00
2023-07-03T11:53:38.200Z,46.30
2023-07-03T11:57:42.849Z,46.30
2023-07-03T12:01:44.264Z,46.20
2023-07-03T12:05:53.183Z,45.90
2023-07-03T12:10:15.405Z,44.50
2023-07-03T12:14:20.517Z,44.70
2023-07-03T12:18:21.943Z,45.30
2023-07-03T12:22:27.098Z,45.30
2023-07-03T12:26:30.430Z,46.40
2023-07-03T12:30:31.781Z,46.80
2023-07-03T12:34:35.872Z,46.10
2023-07-03T12:38:37.177Z,45.40
2023-07-03T12:42:38.506Z,45.90
2023-07-03T12:46:41.514Z,46.10
2023-07-03T12:50:53.194Z,45.40
2023-07-03T12:55:09.389Z,45.40
2023-07-03T12:59:00.336Z,44.50
2023-07-03T13:03:04.862Z,44.90
2023-07-03T13:07:06.375Z,44.40
2023-07-03T13:11:07.921Z,44.00
2023-07-03T13:15:13.108Z,44.10
2023-07-03T13:19:25.883Z,45.10
2023-07-03T13:23:37.033Z,45.80
2023-07-03T13:27:38.592Z,45.60
2023-07-03T13:31:51.295Z,45.30
2023-07-03T13:35:51.076Z,47.20
2023-07-03T13:40:01.070Z,48.20
2023-07-03T13:43:57.000Z,47.80
2023-07-03T13:47:58.363Z,47.10
2023-07-03T13:51:59.637Z,46.60
2023-07-03T13:56:01.078Z,45.70
2023-07-03T14:00:03.106Z,46.50
2023-07-03T14:04:06.036Z,47.10
2023-07-03T14:08:07.953Z,47.60
2023-07-03T14:12:09.309Z,45.60
2023-07-03T14:16:12.632Z,45.40
2023-07-03T14:20:14.309Z,44.60
2023-07-03T14:24:15.599Z,45.10
2023-07-03T14:28:16.979Z,45.30
2023-07-03T14:32:18.271Z,47.20
2023-07-03T14:36:19.686Z,47.10
2023-07-03T14:40:21.132Z,46.00
2023-07-03T14:44:22.499Z,46.20
2023-07-03T14:48:23.812Z,46.60
2023-07-03T14:52:27.164Z,47.50
2023-07-03T14:56:28.474Z,47.50
2023-07-03T15:00:31.961Z,48.00
2023-07-03T15:04:33.415Z,48.40
2023-07-03T15:08:35.048Z,49.70
2023-07-03T15:12:37.457Z,50.90
2023-07-03T15:16:38.775Z,51.30
2023-07-03T15:20:42.225Z,51.20
2023-07-03T15:24:43.645Z,52.30
2023-07-03T15:28:44.968Z,53.10
2023-07-03T15:32:51.814Z,52.50
2023-07-03T15:36:54.600Z,51.70
2023-07-03T15:40:58.020Z,52.00
2023-07-03T15:44:59.425Z,51.10
2023-07-03T15:49:00.935Z,52.50
2023-07-03T15:53:02.247Z,53.10
2023-07-03T15:57:04.312Z,53.40
2023-07-03T16:01:09.295Z,52.40
2023-07-03T16:05:11.511Z,50.70
2023-07-03T16:09:13.989Z,49.60
2023-07-03T16:13:15.399Z,47.80
2023-07-03T16:17:16.826Z,47.50
2023-07-03T16:21:21.908Z,47.90
2023-07-03T16:25:23.633Z,48.40
2023-07-03T16:29:24.940Z,48.70
2023-07-03T16:33:26.388Z,48.70
2023-07-03T16:37:27.697Z,49.30
2023-07-03T16:41:31.852Z,50.00
2023-07-03T16:45:33.130Z,50.00
2023-07-03T16:49:34.535Z,50.40
2023-07-03T16:53:41.942Z,51.10
2023-07-03T16:57:43.628Z,51.00
2023-07-03T17:01:45.043Z,51.70
2023-07-03T17:05:46.651Z,51.70
2023-07-03T17:09:47.987Z,51.60
2023-07-03T17:13:49.900Z,51.90
2023-07-03T17:17:51.412Z,52.90
2023-07-03T17:21:52.815Z,52.70
2023-07-03T17:25:54.722Z,54.40
2023-07-03T17:29:56.146Z,54.60
2023-07-03T17:33:57.503Z,53.60
2023-07-03T17:37:59.443Z,53.80
2023-07-03T17:42:00.809Z,53.90
2023-07-03T17:46:02.112Z,54.20
2023-07-03T17:50:04.361Z,54.60
2023-07-03T17:54:05.747Z,55.10
2023-07-03T17:58:07.671Z,55.40
2023-07-03T18:02:12.127Z,56.30
2023-07-03T18:06:13.597Z,56.70
2023-07-03T18:10:15.042Z,57.30
2023-07-03T18:14:16.496Z,58.60
2023-07-03T18:18:19.774Z,60.10
2023-07-03T18:22:21.160Z,62.30
2023-07-03T18:26:22.763Z,64.70
2023-07-03T18:30:24.148Z,67.00
2023-07-03T18:34:25.577Z,69.60
2023-07-03T18:38:26.970Z,71.30
2023-07-03T18:42:28.335Z,72.50
2023-07-03T18:46:29.851Z,74.50
2023-07-03T18:50:31.344Z,75.70
2023-07-03T18:54:33.421Z,78.10
2023-07-03T18:58:34.831Z,79.30
2023-07-03T19:02:36.194Z,80.70
2023-07-03T19:06:39.725Z,81.40
2023-07-03T19:10:41.736Z,85.40
2023-07-03T19:14:43.736Z,88.00
2023-07-03T19:18:45.457Z,90.80
2023-07-03T19:22:46.908Z,92.40
2023-07-03T19:26:49.830Z,94.20
2023-07-03T19:30:56.532Z,95.00
2023-07-03T19:34:57.999Z,96.90
2023-07-03T19:38:59.624Z,96.90
2023-07-03T19:43:01.087Z,96.50
2023-07-03T19:47:02.807Z,96.90
2023-07-03T19:51:04.281Z,97.90
2023-07-03T19:55:07.015Z,98.70
2023-07-03T19:59:10.307Z,99.70
2023-07-03T20:03:13.038Z,99.90
2023-07-03T20:07:14.525Z,99.90
2023-07-03T20:11:16.868Z,99.90
2023-07-03T20:15:21.935Z,99.90
2023-07-03T20:19:23.454Z,99.90
2023-07-03T20:23:24.955Z,99.90
2023-07-03T20:27:29.083Z,99.90
2023-07-03T20:31:30.416Z,99.90
2023-07-03T20:35:31.721Z,99.90
2023-07-03T20:39:33.064Z,99.90
2023-07-03T20:43:35.581Z,99.90
2023-07-03T20:47:36.927Z,99.90
2023-07-03T20:51:39.668Z,99.90
2023-07-03T20:55:45.621Z,99.90
2023-07-03T20:59:52.612Z,99.90
2023-07-03T21:03:55.480Z,99.90
2023-07-03T21:07:56.853Z,99.90
2023-07-03T21:11:58.345Z,99.90
2023-07-03T21:16:02.638Z,99.90
2023-07-03T21:20:06.575Z,99.90
2023-07-03T21:24:10.447Z,99.90
2023-07-03T21:28:11.827Z,99.90
2023-07-03T21:32:13.176Z,99.90
2023-07-03T21:36:19.139Z,99.90
2023-07-03T21:40:20.589Z,99.90
2023-07-03T21:44:22.156Z,99.90
2023-07-03T21:48:25.552Z,99.90
2023-07-03T21:52:26.883Z,99.90
2023-07-03T21:56:31.804Z,99.90
2023-07-03T22:00:33.393Z,99.90
2023-07-03T22:04:34.770Z,99.90
2023-07-03T22:08:36.079Z,99.90
2023-07-03T22:12:37.383Z,99.90
2023-07-03T22:16:38.886Z,99.90
2023-07-03T22:20:40.398Z,99.90
2023-07-03T22:24:42.898Z,99.90
2023-07-03T22:28:45.356Z,99.90
2023-07-03T22:32:47.173Z,99.90
2023-07-03T22:36:48.440Z,99.90
2023-07-03T22:40:50.767Z,99.90
2023-07-03T22:44:52.134Z,99.90
2023-07-03T22:48:53.442Z,99.90
2023-07-03T22:52:54.754Z,99.90
2023-07-03T22:56:56.851Z,99.90
2023-07-03T23:01:00.220Z,99.90
2023-07-03T23:05:01.704Z,99.90
2023-07-03T23:09:04.480Z,99.90
2023-07-03T23:13:05.790Z,99.90
2023-07-03T23:17:08.033Z,99.90
2023-07-03T23:21:13.444Z,99.90
2023-07-03T23:25:14.668Z,99.90
2023-07-03T23:29:15.955Z,99.90
2023-07-03T23:33:17.571Z,99.90
2023-07-03T23:37:20.789Z,99.90
2023-07-03T23:41:22.110Z,99.90
2023-07-03T23:45:23.811Z,99.90
2023-07-03T23:49:25.627Z,99.90
2023-07-03T23:53:28.427Z,99.90
2023-07-03T23:57:29.729Z,99.90
